sensor_id;sensor_type;location;lat;lon;timestamp;P1;durP1;ratioP1;P2;durP2;ratioP2
3259;SDS011;68938;48.150;14.004;2023-05-02T00:01:18;15.03;;;13.63;;
3259;SDS011;68938;48.150;14.004;2023-05-02T00:03:45;15.13;;;13.67;;
3259;SDS011;68938;48.150;14.004;2023-05-02T00:06:13;15.37;;;13.80;;
3259;SDS011;68938;48.150;14.004;2023-05-02T00:08:40;15.70;;;14.20;;
3259;SDS011;68938;48.150;14.004;2023-05-02T00:11:06;13.90;;;12.60;;
3259;SDS011;68938;48.150;14.004;2023-05-02T00:13:34;13.50;;;12.20;;
3259;SDS011;68938;48.150;14.004;2023-05-02T00:16:00;14.83;;;13.33;;
3259;SDS011;68938;48.150;14.004;2023-05-02T00:18:27;16.23;;;13.37;;
3259;SDS011;68938;48.150;14.004;2023-05-02T00:20:54;14.40;;;12.97;;
3259;SDS011;68938;48.150;14.004;2023-05-02T00:23:21;14.30;;;12.80;;
3259;SDS011;68938;48.150;14.004;2023-05-02T00:25:48;15.20;;;13.90;;
3259;SDS011;68938;48.150;14.004;2023-05-02T00:28:15;15.37;;;13.97;;
3259;SDS011;68938;48.150;14.004;2023-05-02T00:30:42;13.87;;;12.77;;
3259;SDS011;68938;48.150;14.004;2023-05-02T00:33:11;13.90;;;12.70;;
3259;SDS011;68938;48.150;14.004;2023-05-02T00:35:39;13.73;;;12.43;;
3259;SDS011;68938;48.150;14.004;2023-05-02T00:38:06;15.13;;;13.63;;
3259;SDS011;68938;48.150;14.004;2023-05-02T00:40:43;15.30;;;13.90;;
3259;SDS011;68938;48.150;14.004;2023-05-02T00:43:11;14.97;;;13.50;;
3259;SDS011;68938;48.150;14.004;2023-05-02T00:45:39;15.43;;;14.00;;
3259;SDS011;68938;48.150;14.004;2023-05-02T00:48:09;15.50;;;14.10;;
3259;SDS011;68938;48.150;14.004;2023-05-02T00:50:38;15.27;;;13.77;;
3259;SDS011;68938;48.150;14.004;2023-05-02T00:53:08;15.67;;;14.17;;
3259;SDS011;68938;48.150;14.004;2023-05-02T00:55:36;14.47;;;13.10;;
3259;SDS011;68938;48.150;14.004;2023-05-02T00:58:05;14.77;;;13.27;;
3259;SDS011;68938;48.150;14.004;2023-05-02T01:09:15;14.33;;;12.93;;
3259;SDS011;68938;48.150;14.004;2023-05-02T01:11:55;14.20;;;13.00;;
3259;SDS011;68938;48.150;14.004;2023-05-02T01:14:35;13.63;;;12.30;;
3259;SDS011;68938;48.150;14.004;2023-05-02T01:17:13;13.43;;;12.10;;
3259;SDS011;68938;48.150;14.004;2023-05-02T01:19:43;14.00;;;12.90;;
3259;SDS011;68938;48.150;14.004;2023-05-02T01:22:23;13.57;;;12.37;;
3259;SDS011;68938;48.150;14.004;2023-05-02T01:27:33;15.47;;;14.00;;
3259;SDS011;68938;48.150;14.004;2023-05-02T01:30:13;13.13;;;11.87;;
3259;SDS011;68938;48.150;14.004;2023-05-02T01:32:44;13.90;;;12.60;;
3259;SDS011;68938;48.150;14.004;2023-05-02T01:35:13;13.13;;;12.00;;
3259;SDS011;68938;48.150;14.004;2023-05-02T01:37:45;13.13;;;11.80;;
3259;SDS011;68938;48.150;14.004;2023-05-02T01:40:16;13.27;;;11.97;;
3259;SDS011;68938;48.150;14.004;2023-05-02T01:42:46;12.93;;;11.70;;
3259;SDS011;68938;48.150;14.004;2023-05-02T01:45:15;11.30;;;10.20;;
3259;SDS011;68938;48.150;14.004;2023-05-02T01:47:44;11.70;;;10.50;;
3259;SDS011;68938;48.150;14.004;2023-05-02T01:50:13;10.87;;;9.97;;
3259;SDS011;68938;48.150;14.004;2023-05-02T01:52:45;11.37;;;10.37;;
3259;SDS011;68938;48.150;14.004;2023-05-02T01:55:14;11.17;;;10.00;;
3259;SDS011;68938;48.150;14.004;2023-05-02T01:57:45;9.83;;;8.93;;
3259;SDS011;68938;48.150;14.004;2023-05-02T02:00:14;10.63;;;9.50;;
3259;SDS011;68938;48.150;14.004;2023-05-02T02:02:43;10.20;;;9.30;;
3259;SDS011;68938;48.150;14.004;2023-05-02T02:05:12;9.50;;;8.60;;
3259;SDS011;68938;48.150;14.004;2023-05-02T02:07:40;9.80;;;9.00;;
3259;SDS011;68938;48.150;14.004;2023-05-02T02:10:08;11.57;;;10.47;;
3259;SDS011;68938;48.150;14.004;2023-05-02T02:12:44;9.50;;;8.80;;
3259;SDS011;68938;48.150;14.004;2023-05-02T02:15:20;10.53;;;9.57;;
3259;SDS011;68938;48.150;14.004;2023-05-02T02:17:55;10.60;;;9.67;;
3259;SDS011;68938;48.150;14.004;2023-05-02T02:20:30;10.80;;;9.80;;
3259;SDS011;68938;48.150;14.004;2023-05-02T02:22:59;9.20;;;8.30;;
3259;SDS011;68938;48.150;14.004;2023-05-02T02:25:31;9.23;;;8.43;;
3259;SDS011;68938;48.150;14.004;2023-05-02T02:28:00;9.40;;;8.60;;
3259;SDS011;68938;48.150;14.004;2023-05-02T02:30:27;7.43;;;6.83;;
3259;SDS011;68938;48.150;14.004;2023-05-02T02:32:54;8.73;;;8.07;;
3259;SDS011;68938;48.150;14.004;2023-05-02T02:35:21;7.60;;;6.90;;
3259;SDS011;68938;48.150;14.004;2023-05-02T02:37:58;8.37;;;7.77;;
3259;SDS011;68938;48.150;14.004;2023-05-02T02:40:56;8.10;;;7.40;;
3259;SDS011;68938;48.150;14.004;2023-05-02T02:50:16;7.87;;;7.20;;
3259;SDS011;68938;48.150;14.004;2023-05-02T03:01:17;5.43;;;5.07;;
3259;SDS011;68938;48.150;14.004;2023-05-02T03:03:47;4.20;;;3.90;;
3259;SDS011;68938;48.150;14.004;2023-05-02T03:06:16;3.50;;;3.27;;
3259;SDS011;68938;48.150;14.004;2023-05-02T03:08:44;3.50;;;3.40;;
3259;SDS011;68938;48.150;14.004;2023-05-02T03:11:11;3.90;;;3.50;;
3259;SDS011;68938;48.150;14.004;2023-05-02T03:13:38;3.57;;;3.23;;
3259;SDS011;68938;48.150;14.004;2023-05-02T03:18:38;3.27;;;3.07;;
3259;SDS011;68938;48.150;14.004;2023-05-02T03:21:06;3.67;;;3.30;;
3259;SDS011;68938;48.150;14.004;2023-05-02T03:23:32;3.20;;;3.00;;
3259;SDS011;68938;48.150;14.004;2023-05-02T03:26:00;3.60;;;3.37;;
3259;SDS011;68938;48.150;14.004;2023-05-02T03:28:27;3.60;;;3.40;;
3259;SDS011;68938;48.150;14.004;2023-05-02T03:30:54;3.23;;;3.03;;
3259;SDS011;68938;48.150;14.004;2023-05-02T03:33:21;3.20;;;3.00;;
3259;SDS011;68938;48.150;14.004;2023-05-02T03:35:48;3.35;;;3.15;;
3259;SDS011;68938;48.150;14.004;2023-05-02T03:38:15;3.20;;;3.10;;
3259;SDS011;68938;48.150;14.004;2023-05-02T03:40:42;3.37;;;3.17;;
3259;SDS011;68938;48.150;14.004;2023-05-02T03:43:08;5.47;;;4.50;;
3259;SDS011;68938;48.150;14.004;2023-05-02T03:45:35;3.70;;;3.40;;
3259;SDS011;68938;48.150;14.004;2023-05-02T03:48:02;4.10;;;3.90;;
3259;SDS011;68938;48.150;14.004;2023-05-02T03:50:29;4.23;;;4.03;;
3259;SDS011;68938;48.150;14.004;2023-05-02T03:52:56;4.07;;;3.77;;
3259;SDS011;68938;48.150;14.004;2023-05-02T03:55:23;4.27;;;4.07;;
3259;SDS011;68938;48.150;14.004;2023-05-02T03:57:50;3.80;;;3.60;;
3259;SDS011;68938;48.150;14.004;2023-05-02T04:00:17;4.10;;;3.80;;
3259;SDS011;68938;48.150;14.004;2023-05-02T04:02:43;3.63;;;3.43;;
3259;SDS011;68938;48.150;14.004;2023-05-02T04:05:10;4.13;;;3.93;;
3259;SDS011;68938;48.150;14.004;2023-05-02T04:07:37;4.83;;;4.43;;
3259;SDS011;68938;48.150;14.004;2023-05-02T04:10:04;4.10;;;3.80;;
3259;SDS011;68938;48.150;14.004;2023-05-02T04:12:32;4.50;;;4.27;;
3259;SDS011;68938;48.150;14.004;2023-05-02T04:14:58;4.20;;;4.00;;
3259;SDS011;68938;48.150;14.004;2023-05-02T04:17:25;3.80;;;3.60;;
3259;SDS011;68938;48.150;14.004;2023-05-02T04:19:52;4.13;;;3.93;;
3259;SDS011;68938;48.150;14.004;2023-05-02T04:22:19;4.00;;;3.80;;
3259;SDS011;68938;48.150;14.004;2023-05-02T04:24:46;5.47;;;4.97;;
3259;SDS011;68938;48.150;14.004;2023-05-02T04:27:13;4.00;;;3.80;;
3259;SDS011;68938;48.150;14.004;2023-05-02T04:29:40;4.53;;;4.23;;
3259;SDS011;68938;48.150;14.004;2023-05-02T04:32:08;4.20;;;4.00;;
3259;SDS011;68938;48.150;14.004;2023-05-02T04:34:35;6.87;;;4.33;;
3259;SDS011;68938;48.150;14.004;2023-05-02T04:37:02;4.30;;;4.10;;
3259;SDS011;68938;48.150;14.004;2023-05-02T04:39:28;4.57;;;4.30;;
3259;SDS011;68938;48.150;14.004;2023-05-02T04:41:55;7.30;;;4.77;;
3259;SDS011;68938;48.150;14.004;2023-05-02T04:44:22;5.13;;;4.73;;
3259;SDS011;68938;48.150;14.004;2023-05-02T04:46:49;5.23;;;4.73;;
3259;SDS011;68938;48.150;14.004;2023-05-02T04:49:17;5.50;;;5.10;;
3259;SDS011;68938;48.150;14.004;2023-05-02T04:51:44;4.87;;;4.50;;
3259;SDS011;68938;48.150;14.004;2023-05-02T04:54:11;5.90;;;5.30;;
3259;SDS011;68938;48.150;14.004;2023-05-02T04:56:38;5.80;;;5.40;;
3259;SDS011;68938;48.150;14.004;2023-05-02T04:59:05;4.90;;;4.60;;
3259;SDS011;68938;48.150;14.004;2023-05-02T05:01:32;5.57;;;5.17;;
3259;SDS011;68938;48.150;14.004;2023-05-02T05:03:59;5.20;;;4.80;;
3259;SDS011;68938;48.150;14.004;2023-05-02T05:06:26;5.23;;;4.93;;
3259;SDS011;68938;48.150;14.004;2023-05-02T05:08:53;5.83;;;5.43;;
3259;SDS011;68938;48.150;14.004;2023-05-02T05:11:20;5.90;;;5.40;;
3259;SDS011;68938;48.150;14.004;2023-05-02T05:13:47;6.20;;;5.70;;
3259;SDS011;68938;48.150;14.004;2023-05-02T05:16:14;5.70;;;5.20;;
3259;SDS011;68938;48.150;14.004;2023-05-02T05:18:41;6.87;;;6.37;;
3259;SDS011;68938;48.150;14.004;2023-05-02T05:21:08;6.30;;;5.70;;
3259;SDS011;68938;48.150;14.004;2023-05-02T05:23:36;7.17;;;6.57;;
3259;SDS011;68938;48.150;14.004;2023-05-02T05:26:10;7.43;;;6.73;;
3259;SDS011;68938;48.150;14.004;2023-05-02T05:28:39;6.43;;;5.97;;
3259;SDS011;68938;48.150;14.004;2023-05-02T05:31:06;6.70;;;6.20;;
3259;SDS011;68938;48.150;14.004;2023-05-02T05:33:36;6.77;;;6.17;;
3259;SDS011;68938;48.150;14.004;2023-05-02T05:36:05;7.70;;;6.67;;
3259;SDS011;68938;48.150;14.004;2023-05-02T05:38:33;7.63;;;7.03;;
3259;SDS011;68938;48.150;14.004;2023-05-02T05:41:01;8.00;;;7.20;;
3259;SDS011;68938;48.150;14.004;2023-05-02T05:43:29;8.07;;;7.47;;
3259;SDS011;68938;48.150;14.004;2023-05-02T05:45:56;7.10;;;6.50;;
3259;SDS011;68938;48.150;14.004;2023-05-02T05:48:23;8.40;;;7.00;;
3259;SDS011;68938;48.150;14.004;2023-05-02T05:50:51;9.33;;;8.43;;
3259;SDS011;68938;48.150;14.004;2023-05-02T05:53:18;9.50;;;8.60;;
3259;SDS011;68938;48.150;14.004;2023-05-02T05:55:46;7.63;;;7.03;;
3259;SDS011;68938;48.150;14.004;2023-05-02T05:58:13;7.53;;;6.93;;
3259;SDS011;68938;48.150;14.004;2023-05-02T06:00:39;7.30;;;6.70;;
3259;SDS011;68938;48.150;14.004;2023-05-02T06:03:06;7.40;;;6.87;;
3259;SDS011;68938;48.150;14.004;2023-05-02T06:05:35;6.73;;;6.13;;
3259;SDS011;68938;48.150;14.004;2023-05-02T06:08:02;6.50;;;6.10;;
3259;SDS011;68938;48.150;14.004;2023-05-02T06:10:29;7.50;;;6.90;;
3259;SDS011;68938;48.150;14.004;2023-05-02T06:12:57;7.20;;;6.70;;
3259;SDS011;68938;48.150;14.004;2023-05-02T06:15:24;7.93;;;7.23;;
3259;SDS011;68938;48.150;14.004;2023-05-02T06:17:51;7.03;;;6.47;;
3259;SDS011;68938;48.150;14.004;2023-05-02T06:20:18;7.20;;;6.50;;
3259;SDS011;68938;48.150;14.004;2023-05-02T06:22:45;6.90;;;6.20;;
3259;SDS011;68938;48.150;14.004;2023-05-02T06:25:12;7.70;;;6.90;;
3259;SDS011;68938;48.150;14.004;2023-05-02T06:27:39;6.80;;;6.30;;
3259;SDS011;68938;48.150;14.004;2023-05-02T06:30:06;7.33;;;6.73;;
3259;SDS011;68938;48.150;14.004;2023-05-02T06:32:33;7.30;;;6.70;;
3259;SDS011;68938;48.150;14.004;2023-05-02T06:35:00;8.90;;;8.00;;
3259;SDS011;68938;48.150;14.004;2023-05-02T06:37:32;11.97;;;10.87;;
3259;SDS011;68938;48.150;14.004;2023-05-02T06:40:00;12.30;;;11.13;;
3259;SDS011;68938;48.150;14.004;2023-05-02T06:42:28;11.73;;;10.63;;
3259;SDS011;68938;48.150;14.004;2023-05-02T06:44:55;12.70;;;11.50;;
3259;SDS011;68938;48.150;14.004;2023-05-02T06:47:22;13.90;;;12.40;;
3259;SDS011;68938;48.150;14.004;2023-05-02T06:49:50;12.60;;;11.47;;
3259;SDS011;68938;48.150;14.004;2023-05-02T06:52:17;12.53;;;11.33;;
3259;SDS011;68938;48.150;14.004;2023-05-02T06:54:45;14.30;;;12.90;;
3259;SDS011;68938;48.150;14.004;2023-05-02T06:57:11;13.60;;;12.30;;
3259;SDS011;68938;48.150;14.004;2023-05-02T06:59:38;12.67;;;11.57;;
3259;SDS011;68938;48.150;14.004;2023-05-02T07:02:05;13.20;;;12.00;;
3259;SDS011;68938;48.150;14.004;2023-05-02T07:04:32;13.63;;;12.43;;
3259;SDS011;68938;48.150;14.004;2023-05-02T07:06:59;13.17;;;11.80;;
3259;SDS011;68938;48.150;14.004;2023-05-02T07:09:26;13.43;;;11.77;;
3259;SDS011;68938;48.150;14.004;2023-05-02T07:11:53;8.80;;;8.00;;
3259;SDS011;68938;48.150;14.004;2023-05-02T07:14:20;10.67;;;9.80;;
3259;SDS011;68938;48.150;14.004;2023-05-02T07:16:47;12.67;;;11.37;;
3259;SDS011;68938;48.150;14.004;2023-05-02T07:19:14;13.83;;;12.53;;
3259;SDS011;68938;48.150;14.004;2023-05-02T07:21:41;13.80;;;11.90;;
3259;SDS011;68938;48.150;14.004;2023-05-02T07:24:07;14.17;;;12.87;;
3259;SDS011;68938;48.150;14.004;2023-05-02T07:26:35;11.87;;;10.80;;
3259;SDS011;68938;48.150;14.004;2023-05-02T07:29:01;12.07;;;10.90;;
3259;SDS011;68938;48.150;14.004;2023-05-02T07:31:28;13.20;;;11.87;;
3259;SDS011;68938;48.150;14.004;2023-05-02T07:33:55;13.50;;;12.20;;
3259;SDS011;68938;48.150;14.004;2023-05-02T07:36:22;12.63;;;11.47;;
3259;SDS011;68938;48.150;14.004;2023-05-02T07:38:49;13.53;;;12.33;;
3259;SDS011;68938;48.150;14.004;2023-05-02T07:41:16;15.17;;;12.80;;
3259;SDS011;68938;48.150;14.004;2023-05-02T07:43:43;13.20;;;11.87;;
3259;SDS011;68938;48.150;14.004;2023-05-02T07:46:10;12.80;;;11.63;;
3259;SDS011;68938;48.150;14.004;2023-05-02T07:48:37;12.27;;;11.07;;
3259;SDS011;68938;48.150;14.004;2023-05-02T07:51:04;12.50;;;11.20;;
3259;SDS011;68938;48.150;14.004;2023-05-02T07:53:33;14.60;;;13.20;;
3259;SDS011;68938;48.150;14.004;2023-05-02T07:56:02;12.57;;;11.47;;
3259;SDS011;68938;48.150;14.004;2023-05-02T07:58:29;12.90;;;11.80;;
3259;SDS011;68938;48.150;14.004;2023-05-02T08:00:56;13.13;;;11.90;;
3259;SDS011;68938;48.150;14.004;2023-05-02T08:03:24;13.40;;;12.20;;
3259;SDS011;68938;48.150;14.004;2023-05-02T08:05:51;14.07;;;12.67;;
3259;SDS011;68938;48.150;14.004;2023-05-02T08:08:18;12.60;;;11.40;;
3259;SDS011;68938;48.150;14.004;2023-05-02T08:10:45;12.97;;;11.77;;
3259;SDS011;68938;48.150;14.004;2023-05-02T08:13:12;12.57;;;11.47;;
3259;SDS011;68938;48.150;14.004;2023-05-02T08:15:39;12.87;;;11.70;;
3259;SDS011;68938;48.150;14.004;2023-05-02T08:18:05;13.17;;;12.07;;
3259;SDS011;68938;48.150;14.004;2023-05-02T08:20:33;13.47;;;12.07;;
3259;SDS011;68938;48.150;14.004;2023-05-02T08:23:00;12.17;;;10.93;;
3259;SDS011;68938;48.150;14.004;2023-05-02T08:25:26;12.23;;;11.13;;
3259;SDS011;68938;48.150;14.004;2023-05-02T08:27:53;13.60;;;12.40;;
3259;SDS011;68938;48.150;14.004;2023-05-02T08:30:20;13.27;;;11.90;;
3259;SDS011;68938;48.150;14.004;2023-05-02T08:32:47;13.00;;;11.80;;
3259;SDS011;68938;48.150;14.004;2023-05-02T08:35:14;13.30;;;12.10;;
3259;SDS011;68938;48.150;14.004;2023-05-02T08:37:41;13.27;;;12.07;;
3259;SDS011;68938;48.150;14.004;2023-05-02T08:40:10;13.10;;;11.80;;
3259;SDS011;68938;48.150;14.004;2023-05-02T08:42:40;11.73;;;10.63;;
3259;SDS011;68938;48.150;14.004;2023-05-02T08:45:10;12.67;;;11.50;;
3259;SDS011;68938;48.150;14.004;2023-05-02T08:47:41;13.53;;;12.30;;
3259;SDS011;68938;48.150;14.004;2023-05-02T08:50:09;13.00;;;11.70;;
3259;SDS011;68938;48.150;14.004;2023-05-02T08:52:36;12.60;;;11.30;;
3259;SDS011;68938;48.150;14.004;2023-05-02T08:55:07;13.07;;;11.83;;
3259;SDS011;68938;48.150;14.004;2023-05-02T08:57:34;11.40;;;10.40;;
3259;SDS011;68938;48.150;14.004;2023-05-02T09:00:01;12.00;;;10.90;;
3259;SDS011;68938;48.150;14.004;2023-05-02T09:05:24;12.00;;;10.93;;
3259;SDS011;68938;48.150;14.004;2023-05-02T09:07:51;11.37;;;10.33;;
3259;SDS011;68938;48.150;14.004;2023-05-02T09:10:18;11.57;;;10.60;;
3259;SDS011;68938;48.150;14.004;2023-05-02T09:12:47;12.63;;;11.43;;
3259;SDS011;68938;48.150;14.004;2023-05-02T09:15:15;13.03;;;10.83;;
3259;SDS011;68938;48.150;14.004;2023-05-02T09:17:46;11.83;;;10.77;;
3259;SDS011;68938;48.150;14.004;2023-05-02T09:20:15;11.47;;;10.47;;
3259;SDS011;68938;48.150;14.004;2023-05-02T09:22:48;11.47;;;10.47;;
3259;SDS011;68938;48.150;14.004;2023-05-02T09:25:20;9.70;;;8.90;;
3259;SDS011;68938;48.150;14.004;2023-05-02T09:27:52;10.67;;;9.70;;
3259;SDS011;68938;48.150;14.004;2023-05-02T09:30:22;10.53;;;9.60;;
3259;SDS011;68938;48.150;14.004;2023-05-02T09:32:51;10.57;;;9.67;;
3259;SDS011;68938;48.150;14.004;2023-05-02T09:35:19;10.50;;;9.60;;
3259;SDS011;68938;48.150;14.004;2023-05-02T09:37:46;11.10;;;10.20;;
3259;SDS011;68938;48.150;14.004;2023-05-02T09:40:13;10.13;;;9.37;;
3259;SDS011;68938;48.150;14.004;2023-05-02T09:42:40;9.93;;;9.13;;
3259;SDS011;68938;48.150;14.004;2023-05-02T09:45:07;10.00;;;9.10;;
3259;SDS011;68938;48.150;14.004;2023-05-02T09:47:43;10.60;;;9.73;;
3259;SDS011;68938;48.150;14.004;2023-05-02T09:50:10;10.90;;;9.80;;
3259;SDS011;68938;48.150;14.004;2023-05-02T09:52:37;8.77;;;7.90;;
3259;SDS011;68938;48.150;14.004;2023-05-02T09:55:18;8.70;;;7.90;;
3259;SDS011;68938;48.150;14.004;2023-05-02T09:57:46;9.00;;;8.10;;
3259;SDS011;68938;48.150;14.004;2023-05-02T10:00:13;9.60;;;8.60;;
3259;SDS011;68938;48.150;14.004;2023-05-02T10:02:40;9.20;;;8.47;;
3259;SDS011;68938;48.150;14.004;2023-05-02T10:05:08;10.10;;;9.07;;
3259;SDS011;68938;48.150;14.004;2023-05-02T10:07:36;10.20;;;9.30;;
3259;SDS011;68938;48.150;14.004;2023-05-02T10:10:03;9.83;;;9.03;;
3259;SDS011;68938;48.150;14.004;2023-05-02T10:12:33;9.70;;;8.93;;
3259;SDS011;68938;48.150;14.004;2023-05-02T10:15:02;9.83;;;8.93;;
3259;SDS011;68938;48.150;14.004;2023-05-02T10:17:30;10.23;;;9.17;;
3259;SDS011;68938;48.150;14.004;2023-05-02T10:20:06;8.80;;;8.00;;
3259;SDS011;68938;48.150;14.004;2023-05-02T10:22:33;9.77;;;8.87;;
3259;SDS011;68938;48.150;14.004;2023-05-02T10:25:01;8.70;;;7.90;;
3259;SDS011;68938;48.150;14.004;2023-05-02T10:27:30;9.80;;;9.07;;
3259;SDS011;68938;48.150;14.004;2023-05-02T10:29:58;8.40;;;7.70;;
3259;SDS011;68938;48.150;14.004;2023-05-02T10:32:26;9.90;;;9.20;;
3259;SDS011;68938;48.150;14.004;2023-05-02T10:34:57;8.73;;;8.13;;
3259;SDS011;68938;48.150;14.004;2023-05-02T10:37:30;9.60;;;8.90;;
3259;SDS011;68938;48.150;14.004;2023-05-02T10:40:00;9.90;;;9.03;;
3259;SDS011;68938;48.150;14.004;2023-05-02T10:42:28;9.47;;;8.67;;
3259;SDS011;68938;48.150;14.004;2023-05-02T10:44:56;9.20;;;8.50;;
3259;SDS011;68938;48.150;14.004;2023-05-02T10:47:26;9.10;;;8.47;;
3259;SDS011;68938;48.150;14.004;2023-05-02T10:49:57;9.50;;;8.60;;
3259;SDS011;68938;48.150;14.004;2023-05-02T10:52:33;10.33;;;9.53;;
3259;SDS011;68938;48.150;14.004;2023-05-02T10:55:20;10.10;;;9.30;;
3259;SDS011;68938;48.150;14.004;2023-05-02T11:00:29;8.97;;;8.17;;
3259;SDS011;68938;48.150;14.004;2023-05-02T11:02:58;9.07;;;8.30;;
3259;SDS011;68938;48.150;14.004;2023-05-02T11:05:27;8.90;;;8.10;;
3259;SDS011;68938;48.150;14.004;2023-05-02T11:10:47;9.87;;;8.87;;
3259;SDS011;68938;48.150;14.004;2023-05-02T11:13:14;8.50;;;7.77;;
3259;SDS011;68938;48.150;14.004;2023-05-02T11:18:11;8.10;;;7.40;;
3259;SDS011;68938;48.150;14.004;2023-05-02T11:20:42;8.00;;;7.30;;
3259;SDS011;68938;48.150;14.004;2023-05-02T11:25:47;8.30;;;7.70;;
3259;SDS011;68938;48.150;14.004;2023-05-02T11:31:07;8.93;;;8.23;;
3259;SDS011;68938;48.150;14.004;2023-05-02T11:33:36;10.07;;;9.27;;
3259;SDS011;68938;48.150;14.004;2023-05-02T11:36:03;7.93;;;7.33;;
3259;SDS011;68938;48.150;14.004;2023-05-02T11:38:34;9.50;;;8.47;;
3259;SDS011;68938;48.150;14.004;2023-05-02T11:41:03;8.83;;;8.13;;
3259;SDS011;68938;48.150;14.004;2023-05-02T11:43:30;9.40;;;8.60;;
3259;SDS011;68938;48.150;14.004;2023-05-02T11:45:58;10.10;;;9.20;;
3259;SDS011;68938;48.150;14.004;2023-05-02T11:48:26;9.63;;;8.60;;
3259;SDS011;68938;48.150;14.004;2023-05-02T11:53:25;9.73;;;8.93;;
3259;SDS011;68938;48.150;14.004;2023-05-02T11:55:54;9.13;;;8.43;;
3259;SDS011;68938;48.150;14.004;2023-05-02T11:58:24;8.07;;;7.47;;
3259;SDS011;68938;48.150;14.004;2023-05-02T12:00:54;9.47;;;8.67;;
3259;SDS011;68938;48.150;14.004;2023-05-02T12:03:22;10.00;;;9.00;;
3259;SDS011;68938;48.150;14.004;2023-05-02T12:05:57;10.73;;;9.73;;
3259;SDS011;68938;48.150;14.004;2023-05-02T12:08:38;8.97;;;8.17;;
3259;SDS011;68938;48.150;14.004;2023-05-02T12:11:08;10.80;;;8.83;;
3259;SDS011;68938;48.150;14.004;2023-05-02T12:13:35;10.80;;;10.00;;
3259;SDS011;68938;48.150;14.004;2023-05-02T12:16:14;9.17;;;8.47;;
3259;SDS011;68938;48.150;14.004;2023-05-02T12:18:43;10.60;;;9.53;;
3259;SDS011;68938;48.150;14.004;2023-05-02T12:21:11;10.70;;;9.83;;
3259;SDS011;68938;48.150;14.004;2023-05-02T12:23:38;9.90;;;9.00;;
3259;SDS011;68938;48.150;14.004;2023-05-02T12:26:15;9.47;;;8.40;;
3259;SDS011;68938;48.150;14.004;2023-05-02T12:28:50;8.67;;;7.97;;
3259;SDS011;68938;48.150;14.004;2023-05-02T12:31:18;9.67;;;8.83;;
3259;SDS011;68938;48.150;14.004;2023-05-02T12:33:45;9.30;;;8.60;;
3259;SDS011;68938;48.150;14.004;2023-05-02T12:36:13;10.40;;;9.40;;
3259;SDS011;68938;48.150;14.004;2023-05-02T12:38:40;10.20;;;9.30;;
3259;SDS011;68938;48.150;14.004;2023-05-02T12:41:14;12.43;;;11.43;;
3259;SDS011;68938;48.150;14.004;2023-05-02T12:43:48;10.57;;;9.63;;
3259;SDS011;68938;48.150;14.004;2023-05-02T12:46:15;9.80;;;9.00;;
3259;SDS011;68938;48.150;14.004;2023-05-02T12:48:42;9.73;;;9.03;;
3259;SDS011;68938;48.150;14.004;2023-05-02T12:51:21;10.90;;;10.00;;
3259;SDS011;68938;48.150;14.004;2023-05-02T12:53:48;10.60;;;9.70;;
3259;SDS011;68938;48.150;14.004;2023-05-02T12:56:15;11.07;;;10.07;;
3259;SDS011;68938;48.150;14.004;2023-05-02T12:58:43;10.37;;;9.57;;
3259;SDS011;68938;48.150;14.004;2023-05-02T13:01:14;10.90;;;10.00;;
3259;SDS011;68938;48.150;14.004;2023-05-02T13:03:42;10.73;;;10.03;;
3259;SDS011;68938;48.150;14.004;2023-05-02T13:06:10;11.73;;;10.53;;
3259;SDS011;68938;48.150;14.004;2023-05-02T13:08:37;11.77;;;10.67;;
3259;SDS011;68938;48.150;14.004;2023-05-02T13:11:04;10.07;;;9.17;;
3259;SDS011;68938;48.150;14.004;2023-05-02T13:13:31;11.20;;;10.27;;
3259;SDS011;68938;48.150;14.004;2023-05-02T13:15:58;10.70;;;9.60;;
3259;SDS011;68938;48.150;14.004;2023-05-02T13:18:25;10.00;;;9.10;;
3259;SDS011;68938;48.150;14.004;2023-05-02T13:20:52;11.00;;;10.10;;
3259;SDS011;68938;48.150;14.004;2023-05-02T13:23:20;9.23;;;8.43;;
3259;SDS011;68938;48.150;14.004;2023-05-02T13:25:46;10.07;;;9.17;;
3259;SDS011;68938;48.150;14.004;2023-05-02T13:28:13;9.67;;;8.83;;
3259;SDS011;68938;48.150;14.004;2023-05-02T13:30:40;10.73;;;9.57;;
3259;SDS011;68938;48.150;14.004;2023-05-02T13:33:07;9.97;;;9.17;;
3259;SDS011;68938;48.150;14.004;2023-05-02T13:35:34;10.60;;;9.70;;
3259;SDS011;68938;48.150;14.004;2023-05-02T13:38:02;9.73;;;8.90;;
3259;SDS011;68938;48.150;14.004;2023-05-02T13:40:29;9.73;;;9.03;;
3259;SDS011;68938;48.150;14.004;2023-05-02T13:42:56;10.63;;;9.53;;
3259;SDS011;68938;48.150;14.004;2023-05-02T13:45:23;9.80;;;9.00;;
3259;SDS011;68938;48.150;14.004;2023-05-02T13:47:49;10.50;;;9.57;;
3259;SDS011;68938;48.150;14.004;2023-05-02T13:50:16;11.17;;;9.10;;
3259;SDS011;68938;48.150;14.004;2023-05-02T13:52:43;10.37;;;9.50;;
3259;SDS011;68938;48.150;14.004;2023-05-02T13:55:14;10.50;;;9.40;;
3259;SDS011;68938;48.150;14.004;2023-05-02T13:57:41;12.10;;;9.97;;
3259;SDS011;68938;48.150;14.004;2023-05-02T14:00:08;10.97;;;10.07;;
3259;SDS011;68938;48.150;14.004;2023-05-02T14:02:35;10.30;;;9.50;;
3259;SDS011;68938;48.150;14.004;2023-05-02T14:05:04;9.90;;;9.10;;
3259;SDS011;68938;48.150;14.004;2023-05-02T14:07:31;9.67;;;8.87;;
3259;SDS011;68938;48.150;14.004;2023-05-02T14:09:58;10.40;;;9.40;;
3259;SDS011;68938;48.150;14.004;2023-05-02T14:12:26;12.10;;;10.10;;
3259;SDS011;68938;48.150;14.004;2023-05-02T14:14:53;10.53;;;9.53;;
3259;SDS011;68938;48.150;14.004;2023-05-02T14:17:20;10.47;;;9.67;;
3259;SDS011;68938;48.150;14.004;2023-05-02T14:19:47;11.63;;;10.70;;
3259;SDS011;68938;48.150;14.004;2023-05-02T14:22:13;11.33;;;10.47;;
3259;SDS011;68938;48.150;14.004;2023-05-02T14:24:41;12.30;;;11.20;;
3259;SDS011;68938;48.150;14.004;2023-05-02T14:27:07;11.83;;;10.83;;
3259;SDS011;68938;48.150;14.004;2023-05-02T14:29:34;12.30;;;11.20;;
3259;SDS011;68938;48.150;14.004;2023-05-02T14:32:01;11.67;;;10.67;;
3259;SDS011;68938;48.150;14.004;2023-05-02T14:34:28;11.07;;;10.17;;
3259;SDS011;68938;48.150;14.004;2023-05-02T14:36:55;11.67;;;10.63;;
3259;SDS011;68938;48.150;14.004;2023-05-02T14:39:22;11.90;;;10.90;;
3259;SDS011;68938;48.150;14.004;2023-05-02T14:41:49;11.23;;;10.27;;
3259;SDS011;68938;48.150;14.004;2023-05-02T14:44:15;13.37;;;12.27;;
3259;SDS011;68938;48.150;14.004;2023-05-02T14:46:42;11.43;;;10.23;;
3259;SDS011;68938;48.150;14.004;2023-05-02T14:49:10;12.47;;;11.37;;
3259;SDS011;68938;48.150;14.004;2023-05-02T14:51:37;11.80;;;10.80;;
3259;SDS011;68938;48.150;14.004;2023-05-02T14:54:04;10.80;;;9.80;;
3259;SDS011;68938;48.150;14.004;2023-05-02T14:56:31;11.33;;;10.33;;
3259;SDS011;68938;48.150;14.004;2023-05-02T14:58:58;11.50;;;10.60;;
3259;SDS011;68938;48.150;14.004;2023-05-02T15:01:25;10.90;;;10.10;;
3259;SDS011;68938;48.150;14.004;2023-05-02T15:03:52;10.73;;;9.90;;
3259;SDS011;68938;48.150;14.004;2023-05-02T15:06:32;10.43;;;9.53;;
3259;SDS011;68938;48.150;14.004;2023-05-02T15:08:59;12.90;;;11.90;;
3259;SDS011;68938;48.150;14.004;2023-05-02T15:11:26;12.03;;;11.00;;
3259;SDS011;68938;48.150;14.004;2023-05-02T15:13:53;12.07;;;11.07;;
3259;SDS011;68938;48.150;14.004;2023-05-02T15:16:23;11.40;;;10.37;;
3259;SDS011;68938;48.150;14.004;2023-05-02T15:18:50;12.10;;;11.00;;
3259;SDS011;68938;48.150;14.004;2023-05-02T15:21:17;10.77;;;9.90;;
3259;SDS011;68938;48.150;14.004;2023-05-02T15:23:44;13.70;;;12.57;;
3259;SDS011;68938;48.150;14.004;2023-05-02T15:26:11;10.70;;;9.83;;
3259;SDS011;68938;48.150;14.004;2023-05-02T15:28:38;11.03;;;10.13;;
3259;SDS011;68938;48.150;14.004;2023-05-02T15:31:05;10.70;;;9.90;;